Terminal Aerodrome Forecast
Issued by NWS

Home | Current Version | Previous Version | Text Only | Print | Product List | Glossary On
Versions: 1 2 3 4 5 6 7 8 9 10 11 12 13
000
FTUS44 KTSA 291720
TAFRVS
TAF
KRVS 291720Z 2918/3018 19005KT P6SM SCT250
     FM300000 15003KT P6SM SCT250
     FM300600 04003KT P6SM SCT100 BKN250=

USA.gov is the U.S. government's official web portal to all federal, state and local government web resources and services.